createdAt,value
2022-11-17T00:04:08.533Z,7.80
2022-11-17T00:09:17.380Z,7.90
2022-11-17T00:14:34.682Z,7.80
2022-11-17T00:19:55.216Z,7.80
2022-11-17T00:24:57.027Z,7.90
2022-11-17T00:29:58.894Z,7.90
2022-11-17T00:35:01.089Z,7.90
2022-11-17T00:40:04.563Z,7.90
2022-11-17T00:45:06.750Z,7.90
2022-11-17T00:50:09.038Z,7.90
2022-11-17T00:55:11.512Z,7.90
2022-11-17T01:00:21.242Z,7.90
2022-11-17T01:05:23.079Z,7.90
2022-11-17T01:10:25.065Z,7.90
2022-11-17T01:15:26.908Z,7.90
2022-11-17T01:20:29.128Z,7.80
2022-11-17T01:25:31.182Z,7.80
2022-11-17T01:30:33.199Z,7.90
2022-11-17T01:35:35.032Z,7.90
2022-11-17T01:40:36.851Z,7.90
2022-11-17T01:45:38.782Z,7.90
2022-11-17T01:50:43.387Z,7.90
2022-11-17T01:55:59.593Z,7.90
2022-11-17T02:01:01.512Z,7.90
2022-11-17T02:06:25.127Z,7.90
2022-11-17T02:11:27.412Z,7.90
2022-11-17T02:16:29.235Z,7.90
2022-11-17T02:22:12.732Z,7.90
2022-11-17T02:27:36.231Z,7.80
2022-11-17T02:33:24.445Z,7.90
2022-11-17T02:38:32.522Z,7.90
2022-11-17T02:44:00.683Z,7.90
2022-11-17T02:49:07.533Z,7.90
2022-11-17T02:54:10.205Z,7.90
2022-11-17T02:59:14.542Z,7.90
2022-11-17T03:04:26.148Z,7.90
2022-11-17T03:09:39.131Z,7.80
2022-11-17T03:14:54.546Z,7.80
2022-11-17T03:20:04.719Z,7.80
2022-11-17T03:25:07.383Z,7.80
2022-11-17T03:30:09.826Z,7.80
2022-11-17T03:35:15.208Z,7.80
2022-11-17T03:40:21.746Z,7.80
2022-11-17T03:45:25.863Z,7.80
2022-11-17T03:50:35.378Z,7.80
2022-11-17T03:55:43.401Z,7.80
2022-11-17T04:00:49.273Z,7.80
2022-11-17T04:05:53.942Z,7.80
2022-11-17T04:11:15.096Z,7.80
2022-11-17T04:16:16.894Z,7.80
2022-11-17T04:21:18.827Z,7.80
2022-11-17T04:26:39.305Z,7.80
2022-11-17T04:31:41.098Z,7.70
2022-11-17T04:36:45.621Z,7.70
2022-11-17T04:41:53.899Z,7.70
2022-11-17T04:46:56.277Z,7.70
2022-11-17T04:51:58.074Z,7.70
2022-11-17T04:56:59.944Z,7.70
2022-11-17T05:02:05.961Z,7.70
2022-11-17T05:07:08.775Z,7.70
2022-11-17T05:12:29.098Z,7.70
2022-11-17T05:17:30.901Z,7.70
2022-11-17T05:22:51.055Z,7.70
2022-11-17T05:27:53.438Z,7.70
2022-11-17T05:32:55.255Z,7.70
2022-11-17T05:37:57.090Z,7.60
2022-11-17T05:42:58.895Z,7.60
2022-11-17T05:48:00.721Z,7.60
2022-11-17T05:53:04.266Z,7.60
2022-11-17T05:58:22.854Z,7.50
2022-11-17T06:03:29.092Z,7.50
2022-11-17T06:08:47.561Z,7.50
2022-11-17T06:13:49.691Z,7.50
2022-11-17T06:19:00.769Z,7.40
2022-11-17T06:24:04.435Z,7.40
2022-11-17T06:29:06.426Z,7.40
2022-11-17T06:34:12.170Z,7.40
2022-11-17T06:39:14.014Z,7.40
2022-11-17T06:44:16.063Z,7.40
2022-11-17T06:49:18.183Z,7.30
2022-11-17T06:54:23.935Z,7.30
2022-11-17T06:59:26.010Z,7.30
2022-11-17T07:04:28.261Z,7.40
2022-11-17T07:09:30.210Z,7.40
2022-11-17T07:14:32.432Z,7.40
2022-11-17T07:19:35.797Z,7.50
2022-11-17T07:24:38.690Z,7.50
2022-11-17T07:29:41.833Z,7.50
2022-11-17T07:34:43.733Z,7.50
2022-11-17T07:39:45.699Z,7.50
2022-11-17T07:44:47.547Z,7.60
2022-11-17T07:49:49.541Z,7.60
2022-11-17T07:54:51.511Z,7.70
2022-11-17T07:59:53.420Z,7.70
2022-11-17T08:04:56.417Z,7.70
2022-11-17T08:09:58.477Z,7.80
2022-11-17T08:15:00.408Z,7.90
2022-11-17T08:20:03.855Z,7.90
2022-11-17T08:25:06.177Z,8.00
2022-11-17T08:30:09.517Z,8.20
2022-11-17T08:35:11.832Z,8.40
2022-11-17T08:40:15.175Z,8.40
2022-11-17T08:45:19.343Z,8.50
2022-11-17T08:50:22.297Z,8.50
2022-11-17T08:55:28.635Z,8.50
2022-11-17T09:00:30.664Z,8.60
2022-11-17T09:05:36.864Z,8.60
2022-11-17T09:10:38.808Z,8.50
2022-11-17T09:15:41.349Z,8.60
2022-11-17T09:20:46.016Z,8.50
2022-11-17T09:25:47.997Z,8.40
2022-11-17T09:30:49.863Z,8.50
2022-11-17T09:35:51.776Z,8.30
2022-11-17T09:40:58.512Z,8.40
2022-11-17T09:46:09.277Z,8.40
2022-11-17T09:51:14.972Z,8.40
2022-11-17T09:56:17.339Z,8.50
2022-11-17T10:01:21.517Z,8.60
2022-11-17T10:06:25.805Z,8.60
2022-11-17T10:11:40.160Z,8.60
2022-11-17T10:16:53.562Z,8.60
2022-11-17T10:22:34.574Z,8.60
2022-11-17T10:27:38.957Z,8.60
2022-11-17T10:32:55.400Z,8.60
2022-11-17T10:38:01.492Z,8.50
2022-11-17T10:43:11.519Z,8.50
2022-11-17T10:48:33.742Z,8.50
2022-11-17T10:53:45.629Z,8.50
2022-11-17T10:58:59.760Z,8.50
2022-11-17T11:04:05.477Z,8.60
2022-11-17T11:09:14.316Z,8.60
2022-11-17T11:14:43.565Z,8.70
2022-11-17T11:19:53.226Z,8.60
2022-11-17T11:25:36.859Z,8.70
2022-11-17T11:30:59.774Z,8.70
2022-11-17T11:36:11.938Z,8.70
2022-11-17T11:41:35.686Z,8.80
2022-11-17T11:47:05.228Z,8.70
2022-11-17T11:52:15.804Z,8.60
2022-11-17T11:57:22.524Z,8.70
2022-11-17T12:02:54.855Z,8.70
2022-11-17T12:08:11.172Z,8.70
2022-11-17T12:13:15.828Z,8.70
2022-11-17T12:18:18.635Z,8.60
2022-11-17T12:23:42.569Z,8.50
2022-11-17T12:28:44.501Z,8.40
2022-11-17T12:33:52.130Z,8.40
2022-11-17T12:38:57.211Z,8.40
2022-11-17T12:44:33.980Z,8.50
2022-11-17T12:49:48.999Z,8.70
2022-11-17T12:55:03.877Z,8.70
2022-11-17T13:00:15.989Z,8.70
2022-11-17T13:05:23.136Z,8.60
2022-11-17T13:10:27.695Z,8.60
2022-11-17T13:15:29.680Z,8.60
2022-11-17T13:20:31.544Z,8.60
2022-11-17T13:25:34.542Z,8.60
2022-11-17T13:30:36.711Z,8.50
2022-11-17T13:35:41.317Z,8.40
2022-11-17T13:40:43.458Z,8.30
2022-11-17T13:45:47.179Z,8.30
2022-11-17T13:50:50.162Z,8.20
2022-11-17T13:55:52.572Z,8.10
2022-11-17T14:00:57.443Z,8.00
2022-11-17T14:06:11.245Z,8.00
2022-11-17T14:11:16.343Z,8.00
2022-11-17T14:16:26.277Z,7.90
2022-11-17T14:21:28.611Z,7.90
2022-11-17T14:26:30.787Z,7.80
2022-11-17T14:31:33.333Z,7.80
2022-11-17T14:36:38.064Z,7.70
2022-11-17T14:41:41.747Z,7.70
2022-11-17T14:46:43.679Z,7.70
2022-11-17T14:51:49.424Z,7.60
2022-11-17T14:56:51.522Z,7.50
2022-11-17T15:01:54.053Z,7.50
2022-11-17T15:06:57.221Z,7.50
2022-11-17T15:11:59.303Z,7.50
2022-11-17T15:17:14.461Z,7.40
2022-11-17T15:22:18.021Z,7.40
2022-11-17T15:27:20.309Z,7.40
2022-11-17T15:32:22.271Z,7.30
2022-11-17T15:37:26.287Z,7.20
2022-11-17T15:42:33.893Z,7.20
2022-11-17T15:47:35.842Z,7.20
2022-11-17T15:53:02.116Z,7.20
2022-11-17T15:57:59.719Z,7.20
2022-11-17T16:03:01.871Z,7.10
2022-11-17T16:08:09.702Z,7.10
2022-11-17T16:13:11.672Z,7.10
2022-11-17T16:18:13.564Z,7.00
2022-11-17T16:23:16.931Z,7.00
2022-11-17T16:28:20.475Z,7.00
2022-11-17T16:33:22.312Z,7.00
2022-11-17T16:38:32.885Z,7.00
2022-11-17T16:43:35.721Z,7.00
2022-11-17T16:48:40.099Z,7.00
2022-11-17T16:53:42.096Z,7.00
2022-11-17T16:58:44.588Z,7.00
2022-11-17T17:03:49.919Z,7.00
2022-11-17T17:09:03.134Z,6.90
2022-11-17T17:14:12.031Z,6.90
2022-11-17T17:19:15.741Z,6.90
2022-11-17T17:24:18.113Z,6.90
2022-11-17T17:29:19.982Z,6.90
2022-11-17T17:34:21.927Z,6.90
2022-11-17T17:39:23.832Z,6.90
2022-11-17T17:44:25.735Z,6.90
2022-11-17T17:49:27.912Z,6.90
2022-11-17T17:54:29.949Z,6.90
2022-11-17T17:59:31.788Z,6.80
2022-11-17T18:04:33.682Z,6.80
2022-11-17T18:09:35.508Z,6.70
2022-11-17T18:14:37.648Z,6.70
2022-11-17T18:19:39.631Z,6.70
2022-11-17T18:24:41.453Z,6.60
2022-11-17T18:29:55.600Z,6.60
2022-11-17T18:35:00.624Z,6.50
2022-11-17T18:40:02.561Z,6.50
2022-11-17T18:45:06.498Z,6.40
2022-11-17T18:50:08.920Z,6.40
2022-11-17T18:55:12.272Z,6.30
2022-11-17T19:00:19.465Z,6.20
2022-11-17T19:05:22.221Z,6.20
2022-11-17T19:10:26.915Z,6.20
2022-11-17T19:15:30.392Z,6.20
2022-11-17T19:20:32.700Z,6.20
2022-11-17T19:25:38.684Z,6.20
2022-11-17T19:30:40.591Z,6.20
2022-11-17T19:35:43.959Z,6.20
2022-11-17T19:40:45.833Z,6.20
2022-11-17T19:45:47.734Z,6.20
2022-11-17T19:50:54.578Z,6.20
2022-11-17T19:55:59.614Z,6.20
2022-11-17T20:01:11.746Z,6.30
2022-11-17T20:06:16.504Z,6.30
2022-11-17T20:11:20.644Z,6.30
2022-11-17T20:16:24.768Z,6.30
2022-11-17T20:21:28.093Z,6.30
2022-11-17T20:26:32.117Z,6.30
2022-11-17T20:31:35.707Z,6.30
2022-11-17T20:36:37.558Z,6.30
2022-11-17T20:41:39.390Z,6.30
2022-11-17T20:46:41.226Z,6.30
2022-11-17T20:51:43.046Z,6.30
2022-11-17T20:56:44.896Z,6.30
2022-11-17T21:01:47.415Z,6.20
2022-11-17T21:06:49.354Z,6.20
2022-11-17T21:11:57.128Z,6.30
2022-11-17T21:17:00.563Z,6.30
2022-11-17T21:22:04.785Z,6.20
2022-11-17T21:27:19.680Z,6.20
2022-11-17T21:32:21.516Z,6.30
2022-11-17T21:37:24.367Z,6.30
2022-11-17T21:42:26.710Z,6.20
2022-11-17T21:47:28.547Z,6.30
2022-11-17T21:52:30.402Z,6.20
2022-11-17T21:57:32.479Z,6.20
2022-11-17T22:02:34.355Z,6.20
2022-11-17T22:07:36.210Z,6.20
2022-11-17T22:12:38.103Z,6.20
2022-11-17T22:17:44.728Z,6.20
2022-11-17T22:22:47.709Z,6.20
2022-11-17T22:27:49.556Z,6.30
2022-11-17T22:32:51.481Z,6.20
2022-11-17T22:37:54.589Z,6.20
2022-11-17T22:42:56.463Z,6.30
2022-11-17T22:47:58.321Z,6.30
2022-11-17T22:53:00.967Z,6.30
2022-11-17T22:58:03.372Z,6.30
2022-11-17T23:03:05.318Z,6.30
2022-11-17T23:08:09.931Z,6.30
2022-11-17T23:13:12.023Z,6.30
2022-11-17T23:18:13.880Z,6.30
2022-11-17T23:23:16.020Z,6.30
2022-11-17T23:28:17.856Z,6.20
2022-11-17T23:33:19.853Z,6.20
2022-11-17T23:38:21.815Z,6.20
2022-11-17T23:43:23.635Z,6.20
2022-11-17T23:48:25.480Z,6.30
2022-11-17T23:53:27.315Z,6.30
2022-11-17T23:58:29.532Z,6.20
